sensor_id;sensor_type;location;lat;lon;timestamp;pressure;altitude;pressure_sealevel;temperature;humidity
69982;BME280;57319;56.274;43.980;2022-09-09T00:00:47;100007.56;;;5.81;82.49
69982;BME280;57319;56.274;43.980;2022-09-09T00:03:19;100010.97;;;5.85;82.33
69982;BME280;57319;56.274;43.980;2022-09-09T00:05:58;100011.88;;;5.88;81.92
69982;BME280;57319;56.274;43.980;2022-09-09T00:11:04;100014.41;;;5.85;81.21
69982;BME280;57319;56.274;43.980;2022-09-09T00:13:52;100012.53;;;5.70;81.97
69982;BME280;57319;56.274;43.980;2022-09-09T00:16:25;100016.72;;;5.64;81.64
69982;BME280;57319;56.274;43.980;2022-09-09T00:19:07;100020.84;;;5.52;82.28
69982;BME280;57319;56.274;43.980;2022-09-09T00:21:38;100027.50;;;5.41;82.86
69982;BME280;57319;56.274;43.980;2022-09-09T00:26:51;100034.34;;;5.45;82.53
69982;BME280;57319;56.274;43.980;2022-09-09T00:29:42;100038.63;;;5.48;81.84
69982;BME280;57319;56.274;43.980;2022-09-09T00:32:15;100031.78;;;5.45;81.89
69982;BME280;57319;56.274;43.980;2022-09-09T00:34:58;100035.13;;;5.39;82.60
69982;BME280;57319;56.274;43.980;2022-09-09T00:37:26;100034.22;;;5.34;82.12
69982;BME280;57319;56.274;43.980;2022-09-09T00:39:55;100035.94;;;5.37;82.13
69982;BME280;57319;56.274;43.980;2022-09-09T00:42:36;100032.53;;;5.33;82.54
69982;BME280;57319;56.274;43.980;2022-09-09T00:45:15;100045.28;;;5.33;81.91
69982;BME280;57319;56.274;43.980;2022-09-09T00:47:50;100046.94;;;5.33;82.07
69982;BME280;57319;56.274;43.980;2022-09-09T00:56:30;100042.72;;;5.33;82.27
69982;BME280;57319;56.274;43.980;2022-09-09T00:59:12;100046.06;;;5.28;83.19
69982;BME280;57319;56.274;43.980;2022-09-09T01:01:41;100049.59;;;5.39;82.77
69982;BME280;57319;56.274;43.980;2022-09-09T01:04:16;100051.31;;;5.40;82.52
69982;BME280;57319;56.274;43.980;2022-09-09T01:06:51;100050.44;;;5.38;81.84
69982;BME280;57319;56.274;43.980;2022-09-09T01:22:29;100065.59;;;5.25;81.98
69982;BME280;57319;56.274;43.980;2022-09-09T01:28:05;100063.97;;;5.31;82.37
69982;BME280;57319;56.274;43.980;2022-09-09T01:30:38;100066.59;;;5.37;82.19
69982;BME280;57319;56.274;43.980;2022-09-09T01:33:04;100064.75;;;5.25;82.68
69982;BME280;57319;56.274;43.980;2022-09-09T01:35:57;100070.69;;;5.27;82.39
69982;BME280;57319;56.274;43.980;2022-09-09T01:38:26;100076.59;;;5.21;82.65
69982;BME280;57319;56.274;43.980;2022-09-09T01:40:53;100074.88;;;5.22;81.96
69982;BME280;57319;56.274;43.980;2022-09-09T01:43:23;100071.59;;;5.29;81.23
69982;BME280;57319;56.274;43.980;2022-09-09T01:45:52;100079.13;;;5.21;82.04
69982;BME280;57319;56.274;43.980;2022-09-09T01:48:18;100080.84;;;5.21;81.67
69982;BME280;57319;56.274;43.980;2022-09-09T01:50:44;100079.09;;;5.17;81.88
69982;BME280;57319;56.274;43.980;2022-09-09T01:53:11;100085.75;;;5.08;82.95
69982;BME280;57319;56.274;43.980;2022-09-09T01:55:41;100079.94;;;5.19;81.91
69982;BME280;57319;56.274;43.980;2022-09-09T02:03:27;100090.97;;;5.18;82.22
69982;BME280;57319;56.274;43.980;2022-09-09T02:06:23;100097.00;;;5.21;82.40
69982;BME280;57319;56.274;43.980;2022-09-09T02:08:52;100096.81;;;5.07;82.28
69982;BME280;57319;56.274;43.980;2022-09-09T02:11:23;100094.22;;;5.06;82.38
69982;BME280;57319;56.274;43.980;2022-09-09T02:13:53;100099.41;;;5.12;82.35
69982;BME280;57319;56.274;43.980;2022-09-09T02:16:34;100094.06;;;4.97;82.80
69982;BME280;57319;56.274;43.980;2022-09-09T02:19:08;100098.44;;;5.04;82.50
69982;BME280;57319;56.274;43.980;2022-09-09T02:21:37;100104.50;;;5.10;82.15
69982;BME280;57319;56.274;43.980;2022-09-09T02:24:06;100098.44;;;5.04;82.06
69982;BME280;57319;56.274;43.980;2022-09-09T02:26:38;100111.97;;;5.00;82.13
69982;BME280;57319;56.274;43.980;2022-09-09T02:29:09;100119.66;;;5.01;82.30
69982;BME280;57319;56.274;43.980;2022-09-09T02:31:38;100126.41;;;4.96;83.11
69982;BME280;57319;56.274;43.980;2022-09-09T02:34:05;100117.97;;;5.02;82.51
69982;BME280;57319;56.274;43.980;2022-09-09T02:36:35;100119.69;;;5.03;82.09
69982;BME280;57319;56.274;43.980;2022-09-09T02:39:03;100116.25;;;5.01;82.11
69982;BME280;57319;56.274;43.980;2022-09-09T02:41:33;100131.53;;;4.98;81.71
69982;BME280;57319;56.274;43.980;2022-09-09T02:43:59;100128.06;;;4.96;81.25
69982;BME280;57319;56.274;43.980;2022-09-09T02:52:05;100136.47;;;4.90;81.81
69982;BME280;57319;56.274;43.980;2022-09-09T02:54:37;100143.16;;;4.82;82.63
69982;BME280;57319;56.274;43.980;2022-09-09T02:57:30;100139.81;;;4.86;82.38
69982;BME280;57319;56.274;43.980;2022-09-09T02:59:58;100144.91;;;4.84;82.07
69982;BME280;57319;56.274;43.980;2022-09-09T03:02:24;100150.06;;;4.89;82.07
69982;BME280;57319;56.274;43.980;2022-09-09T03:04:50;100150.13;;;4.90;81.73
69982;BME280;57319;56.274;43.980;2022-09-09T03:07:20;100149.25;;;4.91;81.73
69982;BME280;57319;56.274;43.980;2022-09-09T03:09:46;100146.66;;;4.87;81.86
69982;BME280;57319;56.274;43.980;2022-09-09T03:12:15;100149.19;;;4.87;81.62
69982;BME280;57319;56.274;43.980;2022-09-09T03:14:41;100158.56;;;4.86;81.54
69982;BME280;57319;56.274;43.980;2022-09-09T03:17:08;100154.31;;;4.88;81.64
69982;BME280;57319;56.274;43.980;2022-09-09T03:19:34;100158.56;;;4.88;81.78
69982;BME280;57319;56.274;43.980;2022-09-09T03:22:01;100157.84;;;4.97;81.62
69982;BME280;57319;56.274;43.980;2022-09-09T03:24:27;100162.03;;;4.93;81.83
69982;BME280;57319;56.274;43.980;2022-09-09T03:26:52;100174.06;;;4.99;81.68
69982;BME280;57319;56.274;43.980;2022-09-09T03:29:18;100168.09;;;4.98;81.49
69982;BME280;57319;56.274;43.980;2022-09-09T03:31:44;100176.63;;;4.99;81.59
69982;BME280;57319;56.274;43.980;2022-09-09T03:34:10;100180.59;;;4.83;82.14
69982;BME280;57319;56.274;43.980;2022-09-09T03:36:36;100184.75;;;4.78;81.83
69982;BME280;57319;56.274;43.980;2022-09-09T03:39:02;100193.34;;;4.83;81.35
69982;BME280;57319;56.274;43.980;2022-09-09T03:41:29;100187.41;;;4.84;81.93
69982;BME280;57319;56.274;43.980;2022-09-09T03:43:55;100189.81;;;4.76;82.78
69982;BME280;57319;56.274;43.980;2022-09-09T03:46:24;100187.97;;;4.67;82.40
69982;BME280;57319;56.274;43.980;2022-09-09T03:48:51;100190.53;;;4.69;82.01
69982;BME280;57319;56.274;43.980;2022-09-09T03:51:18;100192.88;;;4.58;82.53
69982;BME280;57319;56.274;43.980;2022-09-09T03:53:43;100200.63;;;4.64;82.08
69982;BME280;57319;56.274;43.980;2022-09-09T03:56:09;100209.13;;;4.62;81.62
69982;BME280;57319;56.274;43.980;2022-09-09T03:58:36;100197.19;;;4.61;82.34
69982;BME280;57319;56.274;43.980;2022-09-09T04:01:05;100204.06;;;4.65;81.79
69982;BME280;57319;56.274;43.980;2022-09-09T04:03:32;100204.81;;;4.59;82.16
69982;BME280;57319;56.274;43.980;2022-09-09T04:05:59;100209.88;;;4.57;82.44
69982;BME280;57319;56.274;43.980;2022-09-09T04:08:25;100208.97;;;4.54;82.49
69982;BME280;57319;56.274;43.980;2022-09-09T04:10:52;100212.16;;;4.44;82.90
69982;BME280;57319;56.274;43.980;2022-09-09T04:13:18;100213.00;;;4.43;82.88
69982;BME280;57319;56.274;43.980;2022-09-09T04:15:55;100217.94;;;4.35;82.85
69982;BME280;57319;56.274;43.980;2022-09-09T04:18:21;100219.75;;;4.42;82.93
69982;BME280;57319;56.274;43.980;2022-09-09T04:20:48;100223.19;;;4.43;82.62
69982;BME280;57319;56.274;43.980;2022-09-09T04:23:16;100230.00;;;4.44;82.44
69982;BME280;57319;56.274;43.980;2022-09-09T04:25:49;100228.28;;;4.43;82.30
69982;BME280;57319;56.274;43.980;2022-09-09T04:28:16;100234.28;;;4.46;82.25
69982;BME280;57319;56.274;43.980;2022-09-09T04:30:43;100242.09;;;4.54;81.52
69982;BME280;57319;56.274;43.980;2022-09-09T04:33:09;100243.84;;;4.56;81.80
69982;BME280;57319;56.274;43.980;2022-09-09T04:35:36;100244.03;;;4.66;81.76
69982;BME280;57319;56.274;43.980;2022-09-09T04:38:02;100248.44;;;4.74;82.04
69982;BME280;57319;56.274;43.980;2022-09-09T04:40:29;100251.03;;;4.78;81.29
69982;BME280;57319;56.274;43.980;2022-09-09T04:42:57;100251.09;;;4.81;81.31
69982;BME280;57319;56.274;43.980;2022-09-09T04:45:23;100246.13;;;4.87;80.94
69982;BME280;57319;56.274;43.980;2022-09-09T04:47:49;100247.81;;;4.86;80.37
69982;BME280;57319;56.274;43.980;2022-09-09T04:50:14;100250.06;;;4.71;80.38
69982;BME280;57319;56.274;43.980;2022-09-09T04:52:41;100244.28;;;4.78;79.95
69982;BME280;57319;56.274;43.980;2022-09-09T04:55:07;100250.38;;;4.86;80.15
69982;BME280;57319;56.274;43.980;2022-09-09T04:57:34;100250.44;;;4.91;79.34
69982;BME280;57319;56.274;43.980;2022-09-09T04:59:59;100249.81;;;5.03;78.76
69982;BME280;57319;56.274;43.980;2022-09-09T05:02:26;100255.16;;;5.17;78.80
69982;BME280;57319;56.274;43.980;2022-09-09T05:04:51;100259.53;;;5.24;78.29
69982;BME280;57319;56.274;43.980;2022-09-09T05:07:17;100261.47;;;5.37;77.31
69982;BME280;57319;56.274;43.980;2022-09-09T05:09:43;100260.66;;;5.40;77.44
69982;BME280;57319;56.274;43.980;2022-09-09T05:12:09;100265.91;;;5.51;76.86
69982;BME280;57319;56.274;43.980;2022-09-09T05:14:34;100266.81;;;5.53;76.22
69982;BME280;57319;56.274;43.980;2022-09-09T05:17:03;100262.72;;;5.63;76.10
69982;BME280;57319;56.274;43.980;2022-09-09T05:19:29;100270.50;;;5.70;76.09
69982;BME280;57319;56.274;43.980;2022-09-09T05:21:56;100275.66;;;5.75;76.26
69982;BME280;57319;56.274;43.980;2022-09-09T05:24:22;100271.38;;;5.74;75.56
69982;BME280;57319;56.274;43.980;2022-09-09T05:26:48;100274.94;;;5.84;75.32
69982;BME280;57319;56.274;43.980;2022-09-09T05:29:14;100273.34;;;5.90;75.16
69982;BME280;57319;56.274;43.980;2022-09-09T05:31:45;100275.25;;;6.02;75.20
69982;BME280;57319;56.274;43.980;2022-09-09T05:34:12;100275.25;;;6.02;74.45
69982;BME280;57319;56.274;43.980;2022-09-09T05:36:38;100270.00;;;5.94;74.74
69982;BME280;57319;56.274;43.980;2022-09-09T05:39:04;100275.31;;;6.08;74.50
69982;BME280;57319;56.274;43.980;2022-09-09T05:41:29;100282.16;;;6.08;74.64
69982;BME280;57319;56.274;43.980;2022-09-09T05:43:56;100280.56;;;6.16;74.18
69982;BME280;57319;56.274;43.980;2022-09-09T05:46:23;100283.94;;;6.15;74.12
69982;BME280;57319;56.274;43.980;2022-09-09T05:48:51;100283.22;;;6.24;73.08
69982;BME280;57319;56.274;43.980;2022-09-09T05:51:25;100281.53;;;6.26;71.38
69982;BME280;57319;56.274;43.980;2022-09-09T05:53:52;100288.53;;;6.39;71.87
69982;BME280;57319;56.274;43.980;2022-09-09T05:56:22;100281.81;;;6.46;72.78
69982;BME280;57319;56.274;43.980;2022-09-09T05:58:50;100287.84;;;6.51;72.15
69982;BME280;57319;56.274;43.980;2022-09-09T06:01:25;100293.19;;;6.71;72.26
69982;BME280;57319;56.274;43.980;2022-09-09T06:03:52;100291.56;;;6.79;70.63
69982;BME280;57319;56.274;43.980;2022-09-09T06:06:23;100295.88;;;6.84;71.41
69982;BME280;57319;56.274;43.980;2022-09-09T06:08:53;100304.53;;;6.95;71.11
69982;BME280;57319;56.274;43.980;2022-09-09T06:11:22;100293.47;;;6.97;70.42
69982;BME280;57319;56.274;43.980;2022-09-09T06:13:49;100299.50;;;7.01;69.38
69982;BME280;57319;56.274;43.980;2022-09-09T06:16:21;100297.97;;;7.17;70.00
69982;BME280;57319;56.274;43.980;2022-09-09T06:18:49;100309.09;;;7.24;69.23
69982;BME280;57319;56.274;43.980;2022-09-09T06:21:29;100307.41;;;7.23;68.35
69982;BME280;57319;56.274;43.980;2022-09-09T06:23:56;100306.63;;;7.35;68.07
69982;BME280;57319;56.274;43.980;2022-09-09T06:26:23;100311.81;;;7.39;67.19
69982;BME280;57319;56.274;43.980;2022-09-09T06:28:52;100315.19;;;7.34;65.17
69982;BME280;57319;56.274;43.980;2022-09-09T06:31:20;100327.19;;;7.41;64.98
69982;BME280;57319;56.274;43.980;2022-09-09T06:33:47;100315.97;;;7.28;63.99
69982;BME280;57319;56.274;43.980;2022-09-09T06:36:16;100327.34;;;7.58;64.37
69982;BME280;57319;56.274;43.980;2022-09-09T06:38:44;100319.81;;;7.75;62.15
69982;BME280;57319;56.274;43.980;2022-09-09T06:41:11;100324.22;;;7.97;61.93
69982;BME280;57319;56.274;43.980;2022-09-09T06:43:37;100317.53;;;8.15;62.94
69982;BME280;57319;56.274;43.980;2022-09-09T06:46:15;100323.63;;;8.37;62.05
69982;BME280;57319;56.274;43.980;2022-09-09T06:48:41;100333.06;;;8.43;60.21
69982;BME280;57319;56.274;43.980;2022-09-09T06:51:16;100329.69;;;8.50;60.49
69982;BME280;57319;56.274;43.980;2022-09-09T06:53:42;100328.88;;;8.54;59.74
69982;BME280;57319;56.274;43.980;2022-09-09T06:58:41;100324.69;;;8.73;60.22
69982;BME280;57319;56.274;43.980;2022-09-09T07:01:11;100328.16;;;8.89;59.57
69982;BME280;57319;56.274;43.980;2022-09-09T07:03:41;100329.00;;;8.83;57.93
69982;BME280;57319;56.274;43.980;2022-09-09T07:06:09;100333.13;;;8.49;57.68
69982;BME280;57319;56.274;43.980;2022-09-09T07:08:39;100342.44;;;8.39;57.20
69982;BME280;57319;56.274;43.980;2022-09-09T07:11:06;100339.84;;;8.28;58.22
69982;BME280;57319;56.274;43.980;2022-09-09T07:13:33;100339.69;;;8.08;58.54
69982;BME280;57319;56.274;43.980;2022-09-09T07:16:09;100342.38;;;8.27;58.25
69982;BME280;57319;56.274;43.980;2022-09-09T07:18:35;100350.22;;;8.48;58.41
69982;BME280;57319;56.274;43.980;2022-09-09T07:21:03;100347.72;;;8.64;57.53
69982;BME280;57319;56.274;43.980;2022-09-09T07:23:30;100347.75;;;8.67;56.83
69982;BME280;57319;56.274;43.980;2022-09-09T07:25:59;100352.91;;;8.67;57.67
69982;BME280;57319;56.274;43.980;2022-09-09T07:28:25;100345.13;;;8.55;56.05
69982;BME280;57319;56.274;43.980;2022-09-09T07:31:00;100351.94;;;8.53;57.42
69982;BME280;57319;56.274;43.980;2022-09-09T07:33:29;100354.53;;;8.54;57.34
69982;BME280;57319;56.274;43.980;2022-09-09T07:36:10;100356.25;;;8.52;57.30
69982;BME280;57319;56.274;43.980;2022-09-09T07:38:43;100350.22;;;8.47;57.48
69982;BME280;57319;56.274;43.980;2022-09-09T07:41:16;100356.13;;;8.40;58.52
69982;BME280;57319;56.274;43.980;2022-09-09T07:43:44;100343.38;;;8.46;58.08
69982;BME280;57319;56.274;43.980;2022-09-09T07:46:11;100351.84;;;8.42;57.49
69982;BME280;57319;56.274;43.980;2022-09-09T07:48:38;100357.09;;;8.53;56.17
69982;BME280;57319;56.274;43.980;2022-09-09T07:51:13;100357.91;;;8.50;55.81
69982;BME280;57319;56.274;43.980;2022-09-09T07:53:44;100358.91;;;8.74;56.89
69982;BME280;57319;56.274;43.980;2022-09-09T07:56:12;100357.25;;;8.83;56.26
69982;BME280;57319;56.274;43.980;2022-09-09T07:58:39;100378.56;;;8.75;56.32
69982;BME280;57319;56.274;43.980;2022-09-09T08:01:11;100368.28;;;8.69;56.04
69982;BME280;57319;56.274;43.980;2022-09-09T08:03:38;100368.31;;;8.75;55.28
69982;BME280;57319;56.274;43.980;2022-09-09T08:06:07;100376.75;;;8.52;56.03
69982;BME280;57319;56.274;43.980;2022-09-09T08:08:34;100381.91;;;8.55;56.14
69982;BME280;57319;56.274;43.980;2022-09-09T08:11:05;100375.88;;;8.50;54.74
69982;BME280;57319;56.274;43.980;2022-09-09T08:13:34;100379.28;;;8.47;55.76
69982;BME280;57319;56.274;43.980;2022-09-09T08:18:35;100387.09;;;8.66;55.30
69982;BME280;57319;56.274;43.980;2022-09-09T08:21:09;100383.63;;;8.56;55.28
69982;BME280;57319;56.274;43.980;2022-09-09T08:23:40;100381.16;;;8.76;55.81
69982;BME280;57319;56.274;43.980;2022-09-09T08:26:12;100385.47;;;8.83;55.05
69982;BME280;57319;56.274;43.980;2022-09-09T08:28:39;100392.34;;;8.92;55.14
69982;BME280;57319;56.274;43.980;2022-09-09T08:31:16;100388.91;;;8.84;54.19
69982;BME280;57319;56.274;43.980;2022-09-09T08:33:44;100392.28;;;8.77;55.32
69982;BME280;57319;56.274;43.980;2022-09-09T08:36:14;100394.94;;;8.97;55.55
69982;BME280;57319;56.274;43.980;2022-09-09T08:38:43;100384.69;;;9.08;55.04
69982;BME280;57319;56.274;43.980;2022-09-09T08:46:50;100394.13;;;9.09;53.72
69982;BME280;57319;56.274;43.980;2022-09-09T08:51:57;100390.75;;;9.27;53.18
69982;BME280;57319;56.274;43.980;2022-09-09T08:54:23;100390.75;;;9.28;54.06
69982;BME280;57319;56.274;43.980;2022-09-09T08:56:51;100391.66;;;9.50;53.40
69982;BME280;57319;56.274;43.980;2022-09-09T08:59:18;100395.09;;;9.36;51.57
69982;BME280;57319;56.274;43.980;2022-09-09T09:02:18;100400.00;;;8.85;52.08
69982;BME280;57319;56.274;43.980;2022-09-09T09:12:56;100408.81;;;9.44;51.32
69982;BME280;57319;56.274;43.980;2022-09-09T09:15:30;100408.69;;;9.17;51.57
69982;BME280;57319;56.274;43.980;2022-09-09T09:17:56;100413.78;;;9.05;52.40
69982;BME280;57319;56.274;43.980;2022-09-09T09:23:23;100407.94;;;9.36;50.79
69982;BME280;57319;56.274;43.980;2022-09-09T09:25:53;100395.97;;;9.50;48.35
69982;BME280;57319;56.274;43.980;2022-09-09T09:28:29;100404.53;;;9.61;48.72
69982;BME280;57319;56.274;43.980;2022-09-09T09:31:04;100402.81;;;9.53;48.44
69982;BME280;57319;56.274;43.980;2022-09-09T09:36:12;100397.69;;;9.63;49.80
69982;BME280;57319;56.274;43.980;2022-09-09T09:38:52;100415.69;;;9.70;48.88
69982;BME280;57319;56.274;43.980;2022-09-09T09:41:32;100400.25;;;9.56;48.72
69982;BME280;57319;56.274;43.980;2022-09-09T09:43:59;100405.34;;;9.37;50.16
69982;BME280;57319;56.274;43.980;2022-09-09T09:46:27;100406.16;;;9.28;52.50
69982;BME280;57319;56.274;43.980;2022-09-09T09:48:57;100409.66;;;9.40;51.36
69982;BME280;57319;56.274;43.980;2022-09-09T09:51:23;100417.34;;;9.41;52.76
69982;BME280;57319;56.274;43.980;2022-09-09T09:53:50;100406.22;;;9.34;52.27
69982;BME280;57319;56.274;43.980;2022-09-09T09:56:27;100418.16;;;9.32;52.59
69982;BME280;57319;56.274;43.980;2022-09-09T09:58:57;100419.06;;;9.34;52.57
69982;BME280;57319;56.274;43.980;2022-09-09T10:04:13;100424.00;;;8.93;53.75
69982;BME280;57319;56.274;43.980;2022-09-09T10:06:41;100420.59;;;8.86;53.31
69982;BME280;57319;56.274;43.980;2022-09-09T10:09:26;100417.19;;;9.01;52.38
69982;BME280;57319;56.274;43.980;2022-09-09T10:15:06;100424.19;;;9.38;52.39
69982;BME280;57319;56.274;43.980;2022-09-09T10:20:40;100424.22;;;9.44;51.64
69982;BME280;57319;56.274;43.980;2022-09-09T10:29:02;100425.88;;;9.29;52.79
69982;BME280;57319;56.274;43.980;2022-09-09T10:37:11;100437.91;;;9.40;52.06
69982;BME280;57319;56.274;43.980;2022-09-09T10:39:41;100431.94;;;9.53;51.55
69982;BME280;57319;56.274;43.980;2022-09-09T10:42:09;100444.81;;;9.59;51.40
69982;BME280;57319;56.274;43.980;2022-09-09T10:44:56;100434.47;;;9.42;51.30
69982;BME280;57319;56.274;43.980;2022-09-09T10:52:58;100437.91;;;9.49;53.91
69982;BME280;57319;56.274;43.980;2022-09-09T10:55:37;100432.00;;;9.68;53.27
69982;BME280;57319;56.274;43.980;2022-09-09T10:58:12;100436.28;;;9.74;52.96
69982;BME280;57319;56.274;43.980;2022-09-09T11:00:50;100432.00;;;9.84;52.69
69982;BME280;57319;56.274;43.980;2022-09-09T11:03:26;100436.31;;;10.00;52.26
69982;BME280;57319;56.274;43.980;2022-09-09T11:05:56;100438.88;;;9.97;51.74
69982;BME280;57319;56.274;43.980;2022-09-09T11:08:26;100433.72;;;9.85;51.98
69982;BME280;57319;56.274;43.980;2022-09-09T11:13:38;100430.25;;;9.61;53.59
69982;BME280;57319;56.274;43.980;2022-09-09T11:19:04;100430.22;;;9.43;53.79
69982;BME280;57319;56.274;43.980;2022-09-09T11:21:38;100443.84;;;9.26;54.10
69982;BME280;57319;56.274;43.980;2022-09-09T11:24:32;100438.66;;;9.12;55.76
69982;BME280;57319;56.274;43.980;2022-09-09T11:27:25;100454.75;;;8.80;58.46
69982;BME280;57319;56.274;43.980;2022-09-09T11:33:02;100441.41;;;9.80;54.84
69982;BME280;57319;56.274;43.980;2022-09-09T11:38:45;100429.34;;;10.86;51.55
69982;BME280;57319;56.274;43.980;2022-09-09T11:41:17;100427.41;;;11.41;49.95
69982;BME280;57319;56.274;43.980;2022-09-09T11:43:46;100439.69;;;10.81;51.89
69982;BME280;57319;56.274;43.980;2022-09-09T11:46:14;100441.44;;;10.62;52.52
69982;BME280;57319;56.274;43.980;2022-09-09T11:48:45;100429.44;;;10.32;52.04
69982;BME280;57319;56.274;43.980;2022-09-09T11:51:27;100435.44;;;10.56;52.55
69982;BME280;57319;56.274;43.980;2022-09-09T11:53:56;100434.50;;;10.84;52.74
69982;BME280;57319;56.274;43.980;2022-09-09T11:56:29;100427.56;;;11.07;50.85
69982;BME280;57319;56.274;43.980;2022-09-09T11:59:02;100423.94;;;11.46;49.32
69982;BME280;57319;56.274;43.980;2022-09-09T12:01:46;100421.22;;;11.71;48.40
69982;BME280;57319;56.274;43.980;2022-09-09T12:04:59;100426.59;;;11.28;49.51
69982;BME280;57319;56.274;43.980;2022-09-09T12:07:46;100432.84;;;10.65;50.27
69982;BME280;57319;56.274;43.980;2022-09-09T12:10:27;100433.75;;;10.10;52.35
69982;BME280;57319;56.274;43.980;2022-09-09T12:13:22;100440.59;;;10.17;53.26
69982;BME280;57319;56.274;43.980;2022-09-09T12:19:37;100456.84;;;9.74;56.90
69982;BME280;57319;56.274;43.980;2022-09-09T12:25:37;100456.75;;;9.43;58.95
69982;BME280;57319;56.274;43.980;2022-09-09T12:36:58;100443.75;;;9.05;59.17
69982;BME280;57319;56.274;43.980;2022-09-09T12:40:03;100460.91;;;9.09;60.08
69982;BME280;57319;56.274;43.980;2022-09-09T12:42:45;100448.00;;;8.98;59.32
69982;BME280;57319;56.274;43.980;2022-09-09T12:45:35;100455.72;;;8.98;59.13
69982;BME280;57319;56.274;43.980;2022-09-09T12:48:11;100453.09;;;8.87;60.12
69982;BME280;57319;56.274;43.980;2022-09-09T12:50:54;100453.91;;;8.77;61.45
69982;BME280;57319;56.274;43.980;2022-09-09T12:53:39;100452.00;;;8.51;62.50
69982;BME280;57319;56.274;43.980;2022-09-09T12:56:08;100460.63;;;8.61;61.42
69982;BME280;57319;56.274;43.980;2022-09-09T12:58:47;100452.91;;;8.59;61.02
69982;BME280;57319;56.274;43.980;2022-09-09T13:01:34;100448.81;;;8.89;59.62
69982;BME280;57319;56.274;43.980;2022-09-09T13:04:21;100446.38;;;9.19;59.37
69982;BME280;57319;56.274;43.980;2022-09-09T13:07:08;100450.75;;;9.46;59.64
69982;BME280;57319;56.274;43.980;2022-09-09T13:09:48;100458.53;;;9.66;58.50
69982;BME280;57319;56.274;43.980;2022-09-09T13:12:22;100455.94;;;9.58;58.18
69982;BME280;57319;56.274;43.980;2022-09-09T13:14:53;100449.09;;;9.62;57.23
69982;BME280;57319;56.274;43.980;2022-09-09T13:17:28;100449.13;;;9.76;57.12
69982;BME280;57319;56.274;43.980;2022-09-09T13:20:17;100448.31;;;10.05;56.78
69982;BME280;57319;56.274;43.980;2022-09-09T13:22:56;100438.00;;;10.29;56.54
69982;BME280;57319;56.274;43.980;2022-09-09T13:25:40;100446.56;;;10.33;57.15
69982;BME280;57319;56.274;43.980;2022-09-09T13:28:29;100444.88;;;10.33;54.53
69982;BME280;57319;56.274;43.980;2022-09-09T13:31:17;100448.28;;;10.23;55.40
69982;BME280;57319;56.274;43.980;2022-09-09T13:33:46;100446.59;;;10.45;55.10
69982;BME280;57319;56.274;43.980;2022-09-09T13:36:15;100448.31;;;10.43;53.99
69982;BME280;57319;56.274;43.980;2022-09-09T13:41:21;100449.19;;;10.47;53.46
69982;BME280;57319;56.274;43.980;2022-09-09T13:43:49;100445.72;;;10.66;52.22
69982;BME280;57319;56.274;43.980;2022-09-09T13:46:40;100440.53;;;10.83;52.24
69982;BME280;57319;56.274;43.980;2022-09-09T13:52:12;100431.16;;;10.02;53.85
69982;BME280;57319;56.274;43.980;2022-09-09T13:54:48;100442.31;;;9.93;53.89
69982;BME280;57319;56.274;43.980;2022-09-09T13:57:26;100450.81;;;9.75;55.24
69982;BME280;57319;56.274;43.980;2022-09-09T13:59:53;100440.53;;;9.72;55.51
69982;BME280;57319;56.274;43.980;2022-09-09T14:02:20;100450.81;;;9.58;56.37
69982;BME280;57319;56.274;43.980;2022-09-09T14:04:50;100447.34;;;9.48;57.25
69982;BME280;57319;56.274;43.980;2022-09-09T14:07:40;100456.75;;;9.36;58.35
69982;BME280;57319;56.274;43.980;2022-09-09T14:10:16;100453.25;;;9.26;59.78
69982;BME280;57319;56.274;43.980;2022-09-09T14:13:18;100460.16;;;9.33;58.84
69982;BME280;57319;56.274;43.980;2022-09-09T14:15:54;100453.28;;;9.27;58.74
69982;BME280;57319;56.274;43.980;2022-09-09T14:18:22;100454.03;;;9.05;59.92
69982;BME280;57319;56.274;43.980;2022-09-09T14:20:48;100453.19;;;9.12;59.48
69982;BME280;57319;56.274;43.980;2022-09-09T14:23:15;100454.91;;;9.11;60.17
69982;BME280;57319;56.274;43.980;2022-09-09T14:25:44;100458.34;;;9.13;59.59
69982;BME280;57319;56.274;43.980;2022-09-09T14:28:11;100454.03;;;9.05;59.49
69982;BME280;57319;56.274;43.980;2022-09-09T14:30:39;100454.88;;;9.00;59.40
69982;BME280;57319;56.274;43.980;2022-09-09T14:33:06;100454.88;;;8.97;60.06
69982;BME280;57319;56.274;43.980;2022-09-09T14:35:32;100459.09;;;8.89;59.63
69982;BME280;57319;56.274;43.980;2022-09-09T14:37:58;100457.41;;;8.94;59.37
69982;BME280;57319;56.274;43.980;2022-09-09T14:40:26;100458.31;;;9.04;58.70
69982;BME280;57319;56.274;43.980;2022-09-09T14:42:53;100458.28;;;8.98;59.06
69982;BME280;57319;56.274;43.980;2022-09-09T14:45:18;100456.47;;;8.83;59.69
69982;BME280;57319;56.274;43.980;2022-09-09T14:47:44;100459.94;;;8.85;60.01
69982;BME280;57319;56.274;43.980;2022-09-09T14:50:10;100457.31;;;8.76;59.28
69982;BME280;57319;56.274;43.980;2022-09-09T14:52:38;100463.34;;;8.86;58.80
69982;BME280;57319;56.274;43.980;2022-09-09T14:55:04;100469.38;;;8.92;58.66
69982;BME280;57319;56.274;43.980;2022-09-09T14:57:30;100466.78;;;8.88;59.60
69982;BME280;57319;56.274;43.980;2022-09-09T14:59:56;100461.59;;;8.81;59.88
69982;BME280;57319;56.274;43.980;2022-09-09T15:02:22;100458.09;;;8.65;61.19
69982;BME280;57319;56.274;43.980;2022-09-09T15:04:48;100470.06;;;8.62;61.42
69982;BME280;57319;56.274;43.980;2022-09-09T15:07:16;100472.59;;;8.60;61.41
69982;BME280;57319;56.274;43.980;2022-09-09T15:09:42;100469.97;;;8.53;60.66
69982;BME280;57319;56.274;43.980;2022-09-09T15:12:08;100469.16;;;8.57;60.76
69982;BME280;57319;56.274;43.980;2022-09-09T15:14:34;100472.41;;;8.40;62.72
69982;BME280;57319;56.274;43.980;2022-09-09T15:17:00;100469.06;;;8.46;62.25